Time;durP1;ratioP1;P1;durP2;ratioP2;P2;SDS_P1;SDS_P2;PMS_P1;PMS_P2;Temp;Humidity;BMP_temperature;BMP_pressure;BME280_temperature;BME280_humidity;BME280_pressure;Samples;Min_cycle;Max_cycle;Signal;HPM_P1;HPM_P2
2024/04/02 00:00:11;;;;;;;16.50;15.90;;;21.20;66.20;;;;;;5092857;28;20496;-69
2024/04/02 00:02:36;;;;;;;16.37;15.87;;;21.20;66.10;;;;;;5093347;28;20468;-69
2024/04/02 00:05:04;;;;;;;16.20;15.70;;;21.20;66.10;;;;;;5093444;28;20783;-70
2024/04/02 00:07:29;;;;;;;16.20;15.70;;;21.30;66.20;;;;;;5093404;28;20197;-69
2024/04/02 00:09:56;;;;;;;16.60;16.10;;;21.20;66.10;;;;;;5092668;28;20484;-71
2024/04/02 00:12:22;;;;;;;16.10;15.60;;;21.20;66.10;;;;;;5092983;28;20220;-70
2024/04/02 00:14:50;;;;;;;16.43;15.93;;;21.20;66.30;;;;;;5093254;28;20438;-70
2024/04/02 00:17:16;;;;;;;16.63;16.00;;;21.20;66.20;;;;;;5093030;28;20224;-70
2024/04/02 00:19:42;;;;;;;16.13;15.63;;;21.20;66.30;;;;;;5092655;28;20815;-71
2024/04/02 00:22:08;;;;;;;16.87;16.20;;;21.20;66.40;;;;;;5093038;28;20224;-71
2024/04/02 00:24:37;;;;;;;16.53;16.03;;;21.20;66.40;;;;;;5092868;28;20438;-71
2024/04/02 00:27:03;;;;;;;16.50;16.00;;;21.20;66.40;;;;;;5092720;28;20438;-70
2024/04/02 00:29:30;;;;;;;16.33;15.83;;;21.20;66.40;;;;;;5092475;28;20438;-71
2024/04/02 00:31:57;;;;;;;16.53;15.83;;;21.20;66.50;;;;;;5093726;22;20492;-69
2024/04/02 00:34:24;;;;;;;16.23;15.73;;;21.20;66.60;;;;;;5049242;28;20868;-70
2024/04/02 00:36:50;;;;;;;16.00;15.50;;;21.10;66.50;;;;;;5040698;28;21003;-70
2024/04/02 00:39:17;;;;;;;16.50;16.00;;;21.20;66.60;;;;;;5042465;28;20477;-69
2024/04/02 00:41:43;;;;;;;16.53;16.03;;;21.10;66.40;;;;;;5044160;28;20467;-69
2024/04/02 00:44:10;;;;;;;17.27;16.67;;;21.10;66.40;;;;;;5042812;28;20444;-69
2024/04/02 00:46:37;;;;;;;16.43;15.93;;;21.10;66.40;;;;;;5040655;28;20684;-69
2024/04/02 00:49:05;;;;;;;16.50;15.90;;;21.10;66.40;;;;;;5040242;28;20816;-70
2024/04/02 00:51:31;;;;;;;16.23;15.73;;;21.10;66.40;;;;;;5044047;28;20456;-69
2024/04/02 00:53:57;;;;;;;16.47;15.87;;;21.10;66.60;;;;;;5043911;28;20440;-69
2024/04/02 00:56:24;;;;;;;16.20;15.70;;;21.10;66.60;;;;;;5040948;28;20720;-69
2024/04/02 00:58:51;;;;;;;16.67;16.07;;;21.10;66.60;;;;;;5040113;28;20460;-69
2024/04/02 01:01:16;;;;;;;16.50;16.00;;;21.10;66.70;;;;;;5042144;28;20449;-69
2024/04/02 01:03:43;;;;;;;16.10;15.60;;;21.10;66.70;;;;;;5043643;28;20844;-69
2024/04/02 01:06:11;;;;;;;16.30;15.80;;;21.00;66.70;;;;;;5042572;28;20198;-69
2024/04/02 01:08:38;;;;;;;16.53;16.03;;;21.00;66.90;;;;;;5039815;28;20446;-69
2024/04/02 01:11:04;;;;;;;16.30;15.80;;;21.00;66.90;;;;;;5040252;28;20445;-69
2024/04/02 01:13:31;;;;;;;16.30;15.80;;;21.00;67.00;;;;;;5043605;28;20447;-69
2024/04/02 01:16:03;;;;;;;16.60;16.10;;;21.00;67.00;;;;;;5043662;28;20483;-69
2024/04/02 01:18:30;;;;;;;16.70;16.20;;;21.00;67.10;;;;;;5043436;28;20919;-69
2024/04/02 01:20:56;;;;;;;17.03;16.43;;;21.00;67.30;;;;;;5043833;28;20451;-69
2024/04/02 01:23:24;;;;;;;16.60;16.10;;;21.00;67.40;;;;;;5040547;28;20468;-70
2024/04/02 01:25:51;;;;;;;16.60;16.00;;;21.00;67.50;;;;;;5040323;28;20434;-69
2024/04/02 01:28:18;;;;;;;16.27;15.77;;;21.00;67.50;;;;;;5041865;28;20456;-69
2024/04/02 01:30:44;;;;;;;16.53;16.03;;;21.00;67.50;;;;;;5042919;28;20440;-69
2024/04/02 01:33:10;;;;;;;16.43;15.93;;;21.00;67.50;;;;;;5042192;28;20470;-69
2024/04/02 01:35:36;;;;;;;17.00;16.50;;;21.00;67.40;;;;;;5039848;28;20198;-70
2024/04/02 01:38:03;;;;;;;16.60;15.90;;;21.00;67.40;;;;;;5039826;28;20967;-70
2024/04/02 01:40:29;;;;;;;16.50;16.00;;;20.90;67.30;;;;;;5043054;28;20197;-70
2024/04/02 01:42:57;;;;;;;16.43;15.90;;;21.00;67.40;;;;;;5042981;28;20542;-70
2024/04/02 01:45:22;;;;;;;16.20;15.70;;;21.00;67.40;;;;;;5040487;28;20206;-70
2024/04/02 01:47:49;;;;;;;16.70;16.20;;;20.90;67.20;;;;;;5039880;28;20448;-70
2024/04/02 01:50:15;;;;;;;16.70;16.10;;;20.90;67.30;;;;;;5057729;28;20229;-70
2024/04/02 01:52:42;;;;;;;16.43;15.93;;;20.90;67.40;;;;;;5051468;28;20460;-69
2024/04/02 01:55:08;;;;;;;16.33;15.83;;;20.90;67.50;;;;;;5042471;28;20444;-69
2024/04/02 01:57:34;;;;;;;16.60;16.10;;;20.90;67.50;;;;;;5046661;28;20823;-69
2024/04/02 02:00:03;;;;;;;16.57;16.07;;;20.90;67.60;;;;;;5042891;28;20198;-69
2024/04/02 02:02:30;;;;;;;16.90;16.30;;;20.90;67.70;;;;;;5048001;28;20911;-70
2024/04/02 02:04:56;;;;;;;16.70;16.10;;;20.90;67.70;;;;;;5054203;28;21000;-69
2024/04/02 02:07:23;;;;;;;16.70;16.10;;;20.90;67.80;;;;;;5048934;28;20440;-69
2024/04/02 02:09:48;;;;;;;16.33;15.83;;;20.90;67.80;;;;;;5039258;28;20210;-70
2024/04/02 02:12:15;;;;;;;16.80;16.23;;;20.90;68.60;;;;;;5040841;28;20484;-69
2024/04/02 02:14:41;;;;;;;17.27;16.40;;;20.90;68.00;;;;;;5043065;28;20665;-69
2024/04/02 02:17:09;;;;;;;16.87;16.33;;;20.90;68.10;;;;;;5042678;28;20483;-69
2024/04/02 02:19:34;;;;;;;16.70;16.20;;;20.90;68.20;;;;;;5053314;28;20213;-70
2024/04/02 02:22:02;;;;;;;16.97;16.43;;;20.80;68.10;;;;;;5044848;28;20982;-70
2024/04/02 02:24:28;;;;;;;17.03;16.33;;;20.80;68.10;;;;;;5043463;28;20245;-70
2024/04/02 02:26:56;;;;;;;17.10;16.50;;;20.90;68.20;;;;;;5043190;28;20436;-71
2024/04/02 02:29:25;;;;;;;17.07;16.47;;;20.80;68.10;;;;;;5044982;28;20207;-70
2024/04/02 02:31:53;;;;;;;16.87;16.27;;;20.80;68.20;;;;;;5046271;28;20470;-70
2024/04/02 02:34:20;;;;;;;16.70;16.20;;;20.80;68.10;;;;;;5059805;28;20443;-71
2024/04/02 02:36:47;;;;;;;16.43;15.93;;;20.80;68.10;;;;;;5042976;28;20481;-71
2024/04/02 02:39:13;;;;;;;16.97;16.37;;;20.80;68.10;;;;;;5043683;28;20475;-69
2024/04/02 02:41:40;;;;;;;17.00;16.50;;;20.80;68.10;;;;;;5046237;28;20456;-70
2024/04/02 02:44:06;;;;;;;16.60;16.10;;;20.80;68.10;;;;;;5046470;28;20422;-69
2024/04/02 02:46:32;;;;;;;16.53;16.03;;;20.80;68.10;;;;;;5046505;28;20428;-69
2024/04/02 02:48:59;;;;;;;16.57;16.07;;;20.80;68.10;;;;;;5050481;28;20445;-70
2024/04/02 02:51:28;;;;;;;16.77;16.27;;;20.80;68.20;;;;;;5045277;28;20461;-70
2024/04/02 02:53:53;;;;;;;17.90;17.30;;;20.80;68.20;;;;;;5046191;28;20923;-69
2024/04/02 02:56:22;;;;;;;20.43;19.83;;;20.80;68.30;;;;;;5044324;28;20475;-69
2024/04/02 02:58:50;;;;;;;17.10;16.50;;;20.80;68.40;;;;;;5042236;28;20202;-70
2024/04/02 03:01:17;;;;;;;17.73;17.13;;;20.80;68.40;;;;;;5043814;28;20445;-70
2024/04/02 03:03:46;;;;;;;17.67;17.07;;;20.80;68.40;;;;;;5054214;28;20819;-69
2024/04/02 03:06:13;;;;;;;18.40;17.70;;;20.80;68.30;;;;;;5045301;28;20436;-69
2024/04/02 03:08:41;;;;;;;17.73;17.13;;;20.70;68.30;;;;;;5042123;28;20445;-70
2024/04/02 03:11:08;;;;;;;17.70;17.10;;;20.80;68.40;;;;;;5050383;28;20829;-70
2024/04/02 03:13:35;;;;;;;17.40;16.80;;;20.80;68.40;;;;;;5045859;28;20444;-69
2024/04/02 03:16:03;;;;;;;19.50;18.90;;;20.80;68.40;;;;;;5048896;28;20444;-69
2024/04/02 03:18:29;;;;;;;17.80;17.20;;;20.70;68.40;;;;;;5045823;28;20441;-69
2024/04/02 03:20:56;;;;;;;17.50;16.90;;;20.80;68.40;;;;;;5045575;28;20444;-69
2024/04/02 03:23:22;;;;;;;17.00;16.47;;;20.80;68.30;;;;;;5043331;28;20534;-69
2024/04/02 03:25:54;;;;;;;17.30;16.60;;;20.80;68.20;;;;;;5051743;28;20440;-69
2024/04/02 03:28:21;;;;;;;16.97;16.47;;;20.70;68.20;;;;;;5045459;28;20210;-69
2024/04/02 03:30:48;;;;;;;17.57;16.97;;;20.70;68.30;;;;;;5045070;28;20457;-69
2024/04/02 03:33:14;;;;;;;17.20;16.60;;;20.70;68.40;;;;;;5044340;28;20464;-70
2024/04/02 03:35:41;;;;;;;17.17;16.67;;;20.70;68.30;;;;;;5042122;28;20526;-70
2024/04/02 03:38:07;;;;;;;18.00;17.40;;;20.70;68.40;;;;;;5041842;28;20492;-70
2024/04/02 03:40:37;;;;;;;17.73;17.13;;;20.70;68.30;;;;;;5057613;28;20966;-70
2024/04/02 03:43:05;;;;;;;17.80;17.20;;;20.70;68.40;;;;;;5045528;28;20464;-69
2024/04/02 03:45:32;;;;;;;17.40;16.80;;;20.70;68.40;;;;;;5042163;28;20441;-70
2024/04/02 03:47:58;;;;;;;17.43;16.83;;;20.70;68.40;;;;;;5041966;28;20959;-70
2024/04/02 03:50:24;;;;;;;17.17;16.63;;;20.70;68.60;;;;;;5043152;28;20477;-71
2024/04/02 03:52:50;;;;;;;17.20;16.63;;;20.70;68.60;;;;;;5045071;28;20247;-70
2024/04/02 03:55:17;;;;;;;17.50;16.90;;;20.60;68.40;;;;;;5049420;28;20955;-70
2024/04/02 03:57:43;;;;;;;17.23;16.63;;;20.60;68.40;;;;;;5041670;28;20214;-70
2024/04/02 04:00:11;;;;;;;18.07;17.47;;;20.70;68.60;;;;;;5041222;28;20935;-69
2024/04/02 04:02:37;;;;;;;17.47;16.97;;;20.70;68.40;;;;;;5045161;28;20471;-70
2024/04/02 04:05:04;;;;;;;18.10;17.50;;;20.60;68.30;;;;;;5044967;28;20444;-70
2024/04/02 04:07:31;;;;;;;17.70;17.10;;;20.70;68.40;;;;;;5042086;28;20199;-70
2024/04/02 04:09:57;;;;;;;18.17;17.57;;;20.70;68.40;;;;;;5054229;28;20880;-70
2024/04/02 04:12:23;;;;;;;17.77;17.17;;;20.70;68.50;;;;;;5052661;28;20522;-70
2024/04/02 04:14:51;;;;;;;17.50;16.90;;;20.70;68.40;;;;;;5044831;28;20435;-70
2024/04/02 04:17:18;;;;;;;17.90;17.20;;;20.60;68.40;;;;;;5043841;28;20217;-70
2024/04/02 04:19:45;;;;;;;17.70;17.10;;;20.70;68.50;;;;;;5040905;28;20449;-70
2024/04/02 04:22:10;;;;;;;17.93;17.33;;;20.70;68.50;;;;;;5041169;28;20469;-70
2024/04/02 04:24:37;;;;;;;18.23;17.63;;;20.60;68.50;;;;;;5052740;28;20432;-71
2024/04/02 04:27:03;;;;;;;17.90;17.30;;;20.60;68.40;;;;;;5044327;28;20679;-70
2024/04/02 04:29:30;;;;;;;18.43;17.83;;;20.60;68.40;;;;;;5041536;28;20880;-70
2024/04/02 04:31:56;;;;;;;18.30;17.67;;;20.60;68.50;;;;;;5040868;28;20465;-69
2024/04/02 04:34:24;;;;;;;18.60;17.90;;;20.60;68.50;;;;;;5042150;28;20445;-69
2024/04/02 04:36:50;;;;;;;18.70;18.10;;;20.60;68.50;;;;;;5044356;28;20218;-70
2024/04/02 04:39:17;;;;;;;17.73;17.13;;;20.60;68.70;;;;;;5052262;28;20796;-69
2024/04/02 04:41:42;;;;;;;18.10;17.50;;;20.60;68.70;;;;;;5044153;28;20543;-71
2024/04/02 04:44:09;;;;;;;17.93;17.33;;;20.60;68.70;;;;;;5043674;28;20527;-69
2024/04/02 04:46:35;;;;;;;18.17;17.57;;;20.60;68.70;;;;;;5040920;28;20202;-69
2024/04/02 04:49:02;;;;;;;18.80;18.20;;;20.60;68.60;;;;;;5040215;28;20437;-70
2024/04/02 04:51:29;;;;;;;18.53;17.93;;;20.60;68.60;;;;;;5042608;28;20226;-69
2024/04/02 04:53:55;;;;;;;18.63;18.03;;;20.60;68.50;;;;;;5050322;28;20509;-69
2024/04/02 04:56:21;;;;;;;18.93;18.23;;;20.60;68.40;;;;;;5041671;28;20441;-69
2024/04/02 04:58:48;;;;;;;17.73;17.23;;;20.60;68.50;;;;;;5043661;28;20445;-69
2024/04/02 05:01:14;;;;;;;18.73;18.13;;;20.60;68.50;;;;;;5043538;28;20444;-69
2024/04/02 05:03:41;;;;;;;19.33;18.63;;;20.60;68.60;;;;;;5040461;28;20457;-69
2024/04/02 05:06:08;;;;;;;18.40;17.80;;;20.60;68.60;;;;;;5040611;28;20573;-68
2024/04/02 05:08:37;;;;;;;18.67;17.77;;;20.60;68.80;;;;;;5048897;28;20455;-68
2024/04/02 05:11:05;;;;;;;19.37;18.57;;;20.60;69.00;;;;;;5040186;28;20445;-69
2024/04/02 05:13:32;;;;;;;18.57;17.97;;;20.60;69.20;;;;;;5042897;28;20532;-69
2024/04/02 05:15:58;;;;;;;18.83;18.13;;;20.60;69.40;;;;;;5049705;28;20444;-69
2024/04/02 05:18:25;;;;;;;19.50;18.80;;;20.60;70.20;;;;;;5043401;28;20856;-69
2024/04/02 05:20:52;;;;;;;19.10;18.40;;;20.60;69.60;;;;;;5044214;28;20676;-68
2024/04/02 05:23:21;;;;;;;18.47;17.87;;;20.60;69.70;;;;;;5046134;28;20469;-68
2024/04/02 05:25:48;;;;;;;18.37;17.77;;;20.60;69.80;;;;;;5043483;28;20448;-69
2024/04/02 05:28:14;;;;;;;18.50;17.80;;;20.60;70.00;;;;;;5043363;28;20891;-69
2024/04/02 05:30:40;;;;;;;19.23;18.53;;;20.70;70.20;;;;;;5048131;28;20425;-70
2024/04/02 05:33:07;;;;;;;18.70;18.10;;;20.60;70.40;;;;;;5040101;28;20468;-70
2024/04/02 05:35:33;;;;;;;21.57;20.37;;;20.70;70.40;;;;;;5043538;28;20198;-70
2024/04/02 05:38:00;;;;;;;23.17;20.60;;;20.60;73.00;;;;;;5043470;28;20869;-70
2024/04/02 05:40:26;;;;;;;25.90;23.30;;;20.70;75.80;;;;;;5041464;28;20476;-70
2024/04/02 05:42:54;;;;;;;23.57;21.70;;;20.70;81.50;;;;;;5039950;28;20511;-69
2024/04/02 05:45:20;;;;;;;25.83;23.00;;;20.80;85.80;;;;;;5040814;28;20210;-69
2024/04/02 05:47:47;;;;;;;22.67;20.77;;;20.80;92.20;;;;;;5044070;28;20432;-69
2024/04/02 05:50:15;;;;;;;28.50;21.47;;;20.70;89.70;;;;;;5047532;28;20201;-70
2024/04/02 05:52:41;;;;;;;23.70;21.50;;;20.70;92.00;;;;;;5043430;28;20879;-70
2024/04/02 05:55:07;;;;;;;22.83;20.73;;;20.70;91.60;;;;;;5043294;28;20451;-69
2024/04/02 05:57:34;;;;;;;22.00;20.30;;;20.60;91.40;;;;;;5043525;28;20471;-68
2024/04/02 06:00:05;;;;;;;23.00;21.40;;;20.80;90.20;;;;;;5043056;28;20662;-69
2024/04/02 06:02:32;;;;;;;22.70;20.90;;;20.80;88.60;;;;;;5045767;28;20508;-70
2024/04/02 06:04:58;;;;;;;22.07;20.53;;;20.90;86.40;;;;;;5049815;28;20442;-65
2024/04/02 06:07:25;;;;;;;22.80;21.37;;;20.90;84.60;;;;;;5045733;28;20527;-68
2024/04/02 06:09:50;;;;;;;22.90;21.23;;;21.00;81.50;;;;;;5043285;28;20206;-70
2024/04/02 06:12:17;;;;;;;20.83;19.70;;;21.00;81.60;;;;;;5043579;28;20464;-73
2024/04/02 06:14:43;;;;;;;21.43;20.10;;;21.10;80.50;;;;;;5061529;28;20685;-69
2024/04/02 06:17:11;;;;;;;21.10;20.00;;;21.10;79.60;;;;;;5052244;28;20567;-69
2024/04/02 06:19:37;;;;;;;20.53;19.50;;;21.20;80.70;;;;;;5045739;28;20228;-68
2024/04/02 06:22:04;;;;;;;20.77;19.43;;;21.20;79.50;;;;;;5046782;28;20616;-66
2024/04/02 06:24:30;;;;;;;22.13;20.73;;;21.30;79.60;;;;;;5047718;28;20210;-65
2024/04/02 06:26:57;;;;;;;20.20;19.50;;;21.30;79.80;;;;;;5061067;28;20546;-67
2024/04/02 06:29:22;;;;;;;20.53;19.37;;;21.30;79.20;;;;;;5059358;28;20209;-67
2024/04/02 06:31:49;;;;;;;21.00;20.00;;;21.20;78.90;;;;;;5055217;28;21017;-67
2024/04/02 06:34:17;;;;;;;20.40;19.30;;;21.20;78.40;;;;;;5046887;28;20581;-67
2024/04/02 06:36:43;;;;;;;19.47;18.50;;;21.10;78.20;;;;;;5046567;28;20449;-67
2024/04/02 06:39:09;;;;;;;20.23;19.23;;;21.10;77.70;;;;;;5047442;28;20853;-67
2024/04/02 06:41:35;;;;;;;20.00;19.23;;;21.10;77.30;;;;;;5042869;28;20218;-67
2024/04/02 06:44:02;;;;;;;20.63;19.27;;;21.00;76.90;;;;;;5042777;28;20437;-67
2024/04/02 06:46:28;;;;;;;19.20;18.50;;;21.00;76.60;;;;;;5042851;28;20210;-67
2024/04/02 06:48:57;;;;;;;20.50;19.40;;;20.90;76.20;;;;;;5042616;28;20444;-67
2024/04/02 06:51:25;;;;;;;20.37;19.43;;;20.90;76.00;;;;;;5042734;28;20496;-67
2024/04/02 06:53:53;;;;;;;21.17;19.87;;;20.90;75.80;;;;;;5042734;28;20463;-68
2024/04/02 06:56:18;;;;;;;18.80;18.10;;;20.80;75.40;;;;;;5042894;28;20453;-67
2024/04/02 06:58:45;;;;;;;19.10;18.40;;;20.80;75.20;;;;;;5042387;28;20469;-68
2024/04/02 07:01:11;;;;;;;19.93;19.10;;;20.80;75.00;;;;;;5042690;28;20208;-67
2024/04/02 07:03:38;;;;;;;20.03;19.23;;;20.80;74.70;;;;;;5045171;28;20528;-68
2024/04/02 07:06:04;;;;;;;19.63;18.73;;;20.80;74.50;;;;;;5045885;28;20990;-66
2024/04/02 07:08:32;;;;;;;19.90;19.20;;;20.80;74.30;;;;;;5043575;28;20437;-66
2024/04/02 07:10:59;;;;;;;20.20;19.40;;;20.80;74.10;;;;;;5042369;28;20444;-67
2024/04/02 07:13:27;;;;;;;19.50;18.80;;;20.70;73.70;;;;;;5050854;28;20538;-67
2024/04/02 07:15:53;;;;;;;20.27;19.37;;;20.70;73.60;;;;;;5042287;28;20437;-68
2024/04/02 07:18:20;;;;;;;19.70;18.90;;;20.70;73.40;;;;;;5042254;28;20476;-68
2024/04/02 07:20:56;;;;;;;19.63;18.93;;;20.60;73.20;;;;;;5033979;28;20441;-66
2024/04/02 07:23:22;;;;;;;20.80;19.73;;;20.70;73.10;;;;;;5033978;28;20507;-68
2024/04/02 07:25:50;;;;;;;19.93;19.13;;;20.60;72.90;;;;;;5034191;28;20452;-67
2024/04/02 07:28:16;;;;;;;21.00;19.93;;;20.60;72.70;;;;;;5034033;28;20441;-67
2024/04/02 07:30:42;;;;;;;20.60;19.80;;;20.60;72.60;;;;;;5033738;28;20441;-67
2024/04/02 07:33:10;;;;;;;21.50;20.60;;;20.60;72.40;;;;;;5033679;28;20465;-67
2024/04/02 07:35:36;;;;;;;19.90;19.20;;;20.60;72.30;;;;;;5033739;28;20210;-67
2024/04/02 07:38:02;;;;;;;20.47;19.67;;;20.60;72.10;;;;;;5033713;28;20487;-66
2024/04/02 07:40:28;;;;;;;20.17;19.47;;;20.60;72.00;;;;;;5033374;28;20445;-67
2024/04/02 07:42:57;;;;;;;21.20;20.20;;;20.50;71.70;;;;;;5033569;28;20476;-67
2024/04/02 07:45:23;;;;;;;19.93;19.23;;;20.50;71.70;;;;;;5033566;28;20558;-67
2024/04/02 07:47:50;;;;;;;19.50;18.50;;;20.50;71.50;;;;;;5033623;28;20437;-66
2024/04/02 07:50:15;;;;;;;20.40;19.53;;;20.50;71.30;;;;;;5033126;28;20205;-67
2024/04/02 07:52:42;;;;;;;19.80;19.10;;;20.50;71.20;;;;;;5033343;28;20844;-66
2024/04/02 07:55:08;;;;;;;19.63;18.77;;;20.50;71.10;;;;;;5033787;28;20202;-67
2024/04/02 07:57:34;;;;;;;19.10;18.50;;;20.50;70.90;;;;;;5033464;28;20484;-66
2024/04/02 08:00:02;;;;;;;19.00;18.30;;;20.50;70.80;;;;;;5032958;28;20202;-67
2024/04/02 08:02:28;;;;;;;19.00;18.20;;;20.40;70.60;;;;;;5033165;28;20556;-67
2024/04/02 08:04:55;;;;;;;19.60;18.60;;;20.40;70.50;;;;;;5033144;28;20935;-67
2024/04/02 08:07:21;;;;;;;19.13;18.43;;;20.40;70.40;;;;;;5033174;28;20443;-67
2024/04/02 08:09:47;;;;;;;20.00;19.20;;;20.40;70.30;;;;;;5032822;28;20441;-67
2024/04/02 08:12:14;;;;;;;18.83;18.23;;;20.40;70.10;;;;;;5032997;28;20473;-66
2024/04/02 08:14:40;;;;;;;20.33;19.53;;;20.40;69.90;;;;;;5033325;28;20199;-67
2024/04/02 08:17:08;;;;;;;19.60;18.70;;;20.40;69.80;;;;;;5033091;28;20448;-67
2024/04/02 08:19:34;;;;;;;19.63;19.03;;;20.40;69.70;;;;;;5031991;28;20557;-66
2024/04/02 08:22:01;;;;;;;19.90;19.20;;;20.30;69.40;;;;;;5032947;28;20547;-66
2024/04/02 08:24:27;;;;;;;20.00;19.30;;;20.30;69.40;;;;;;5033131;28;20559;-67
2024/04/02 08:26:53;;;;;;;19.50;18.70;;;20.30;69.30;;;;;;5033108;28;20445;-67
2024/04/02 08:29:19;;;;;;;19.00;18.40;;;20.30;69.20;;;;;;5032670;28;20585;-67
2024/04/02 08:31:46;;;;;;;19.13;18.43;;;20.30;69.10;;;;;;5032528;28;20479;-66
2024/04/02 08:34:14;;;;;;;19.50;18.90;;;20.30;69.00;;;;;;5032919;28;20209;-67
2024/04/02 08:36:41;;;;;;;18.80;18.20;;;20.30;69.00;;;;;;5033036;28;20452;-67
2024/04/02 08:39:07;;;;;;;19.47;18.80;;;20.30;68.90;;;;;;5032362;28;20485;-66
2024/04/02 08:41:38;;;;;;;21.03;20.23;;;20.30;68.80;;;;;;5032583;28;20983;-67
2024/04/02 08:44:04;;;;;;;19.77;19.17;;;20.20;68.60;;;;;;5032701;28;20860;-67
2024/04/02 08:46:33;;;;;;;20.70;20.00;;;20.20;68.40;;;;;;5032481;28;20528;-66
2024/04/02 08:48:59;;;;;;;18.90;18.07;;;20.20;68.40;;;;;;5032152;28;20460;-66
2024/04/02 08:51:29;;;;;;;19.17;18.47;;;20.20;68.40;;;;;;5032396;28;20468;-66
2024/04/02 08:53:55;;;;;;;18.90;18.30;;;20.20;68.20;;;;;;5032450;28;20449;-66
2024/04/02 08:56:21;;;;;;;19.80;19.10;;;20.20;68.10;;;;;;5032395;28;20549;-66
2024/04/02 08:58:48;;;;;;;20.30;19.60;;;20.20;68.10;;;;;;5031838;28;20230;-66
2024/04/02 09:01:15;;;;;;;19.60;19.00;;;20.20;68.00;;;;;;5032255;28;20444;-66
2024/04/02 09:03:42;;;;;;;19.40;18.67;;;20.20;67.90;;;;;;5032397;28;20452;-66
2024/04/02 09:06:09;;;;;;;18.60;18.00;;;20.20;67.90;;;;;;5032147;28;20471;-66
2024/04/02 09:08:44;;;;;;;19.17;18.47;;;20.20;67.80;;;;;;5032076;28;20433;-66
2024/04/02 09:11:11;;;;;;;18.70;18.07;;;20.20;67.80;;;;;;5032350;28;20448;-66
2024/04/02 09:13:37;;;;;;;18.57;17.97;;;20.10;67.70;;;;;;5032166;28;20933;-66
2024/04/02 09:16:04;;;;;;;19.20;18.50;;;20.10;67.60;;;;;;5031893;28;20470;-66
2024/04/02 09:18:32;;;;;;;18.43;17.83;;;20.10;67.50;;;;;;5031492;28;20554;-66
2024/04/02 09:21:00;;;;;;;19.10;18.50;;;20.10;67.40;;;;;;5032195;28;20962;-66
2024/04/02 09:23:27;;;;;;;19.80;19.10;;;20.10;67.30;;;;;;5032006;28;20448;-66
2024/04/02 09:25:54;;;;;;;18.93;18.33;;;20.10;67.20;;;;;;5031982;28;20441;-66
2024/04/02 09:28:21;;;;;;;18.90;18.30;;;20.10;67.20;;;;;;5031939;28;21004;-66
2024/04/02 09:30:47;;;;;;;19.47;18.83;;;20.10;67.80;;;;;;5031375;28;20449;-67
2024/04/02 09:33:17;;;;;;;19.57;18.97;;;20.10;67.00;;;;;;5031773;28;20479;-66
2024/04/02 09:36:09;;;;;;;18.70;18.10;;;20.10;67.00;;;;;;5032003;28;20293;-66
2024/04/02 09:38:36;;;;;;;19.27;18.67;;;20.10;66.90;;;;;;5021995;28;20495;-66
2024/04/02 09:41:04;;;;;;;19.57;18.87;;;20.10;66.80;;;;;;5031678;28;20445;-66
2024/04/02 09:43:33;;;;;;;19.23;18.63;;;20.10;66.80;;;;;;5031457;28;20452;-66
2024/04/02 09:46:00;;;;;;;19.33;18.63;;;20.10;66.70;;;;;;5031528;28;20445;-66
2024/04/02 09:48:30;;;;;;;19.37;18.70;;;20.10;66.70;;;;;;5031691;28;20433;-66
2024/04/02 09:50:57;;;;;;;20.07;19.33;;;20.10;66.60;;;;;;5031605;28;20559;-66
2024/04/02 09:53:25;;;;;;;19.13;18.50;;;20.10;66.60;;;;;;5031799;28;20463;-67
2024/04/02 09:55:52;;;;;;;19.40;18.70;;;20.00;66.40;;;;;;5031694;28;20433;-67
2024/04/02 09:58:20;;;;;;;19.77;19.17;;;20.00;66.40;;;;;;5031529;28;20552;-66
2024/04/02 10:00:51;;;;;;;19.60;18.90;;;20.00;66.40;;;;;;5030990;28;20452;-66
2024/04/02 10:03:19;;;;;;;19.87;19.17;;;20.00;66.20;;;;;;5031467;28;20493;-66
2024/04/02 10:05:45;;;;;;;19.40;18.70;;;20.00;66.10;;;;;;5031520;28;20445;-66
2024/04/02 10:08:13;;;;;;;18.70;18.10;;;20.00;66.00;;;;;;5031666;28;20437;-66
2024/04/02 10:10:40;;;;;;;18.80;18.20;;;20.00;66.00;;;;;;5031145;28;20445;-66
2024/04/02 10:13:07;;;;;;;19.40;18.80;;;20.00;66.00;;;;;;5031401;28;20464;-66
2024/04/02 10:15:35;;;;;;;19.27;18.63;;;20.00;65.80;;;;;;5031511;28;20448;-66
2024/04/02 10:18:02;;;;;;;19.30;18.60;;;20.00;65.70;;;;;;5031344;28;21026;-67
2024/04/02 10:20:30;;;;;;;19.53;18.80;;;20.00;65.80;;;;;;5030888;28;20448;-67
2024/04/02 10:22:58;;;;;;;19.07;18.37;;;20.00;65.60;;;;;;5031251;28;20467;-66
2024/04/02 10:25:26;;;;;;;19.37;18.67;;;20.10;65.70;;;;;;5031421;28;20437;-66
2024/04/02 10:27:57;;;;;;;19.70;19.00;;;20.00;65.50;;;;;;5031244;28;20864;-66
2024/04/02 10:30:24;;;;;;;19.07;18.47;;;20.00;65.40;;;;;;5030851;28;20933;-67
2024/04/02 10:32:53;;;;;;;19.90;19.20;;;20.00;65.40;;;;;;5030918;28;20484;-66
2024/04/02 10:35:20;;;;;;;18.60;18.00;;;20.00;65.30;;;;;;5031300;28;20441;-66
2024/04/02 10:37:49;;;;;;;19.30;18.70;;;20.00;65.30;;;;;;5031144;28;20484;-66
2024/04/02 10:40:16;;;;;;;20.30;19.60;;;20.00;65.40;;;;;;5030662;28;20467;-67
2024/04/02 10:42:43;;;;;;;19.50;18.90;;;20.00;65.20;;;;;;5032656;28;20484;-68
2024/04/02 10:45:09;;;;;;;20.00;19.30;;;20.00;65.10;;;;;;5034804;28;20499;-67
2024/04/02 10:47:36;;;;;;;18.70;18.10;;;20.00;65.20;;;;;;5034784;28;20940;-67
2024/04/02 10:50:05;;;;;;;19.80;19.10;;;20.00;65.10;;;;;;5034632;28;20441;-68
2024/04/02 10:52:36;;;;;;;19.40;18.80;;;20.00;65.00;;;;;;5034563;28;20472;-67
2024/04/02 10:55:03;;;;;;;19.70;19.10;;;20.00;65.00;;;;;;5034649;28;20444;-67
2024/04/02 10:57:31;;;;;;;19.10;18.50;;;20.00;64.90;;;;;;5034711;28;20952;-67
2024/04/02 10:59:59;;;;;;;19.70;19.10;;;20.00;64.90;;;;;;5034147;28;20448;-68
2024/04/02 11:02:27;;;;;;;19.70;19.03;;;20.00;64.90;;;;;;5034546;28;20489;-67
2024/04/02 11:04:54;;;;;;;19.20;18.60;;;20.00;64.90;;;;;;5034275;28;20452;-68
2024/04/02 11:07:24;;;;;;;19.80;19.10;;;20.00;64.80;;;;;;5034622;28;20441;-67
2024/04/02 11:09:50;;;;;;;19.20;18.60;;;20.00;64.60;;;;;;5034014;28;20460;-67
2024/04/02 11:12:16;;;;;;;19.60;19.00;;;20.00;64.70;;;;;;5034586;28;20488;-67
2024/04/02 11:14:42;;;;;;;19.87;19.27;;;19.90;64.50;;;;;;5034255;28;20820;-68
2024/04/02 11:17:09;;;;;;;19.00;18.40;;;20.00;64.50;;;;;;5034067;28;20543;-67
2024/04/02 11:19:36;;;;;;;18.70;18.10;;;20.00;64.50;;;;;;5033808;28;20289;-67
2024/04/02 11:25:07;;;;;;;19.90;19.20;;;19.90;64.30;;;;;;5034623;28;20440;-67
2024/04/02 11:27:34;;;;;;;19.70;19.10;;;20.00;64.30;;;;;;5034313;28;20452;-67
2024/04/02 11:30:01;;;;;;;19.80;19.20;;;19.90;64.20;;;;;;5034029;28;20520;-67
2024/04/02 11:32:27;;;;;;;19.83;19.20;;;19.90;64.20;;;;;;5034054;28;20496;-67
2024/04/02 11:34:57;;;;;;;19.20;18.60;;;19.90;64.10;;;;;;5034020;28;20447;-67
2024/04/02 11:37:23;;;;;;;18.60;18.00;;;20.00;64.20;;;;;;5034160;28;20894;-67
2024/04/02 11:39:52;;;;;;;19.27;18.57;;;19.90;64.10;;;;;;5033834;28;20509;-67
2024/04/02 11:42:19;;;;;;;18.80;18.20;;;19.90;64.00;;;;;;5034102;28;20844;-67
2024/04/02 11:44:45;;;;;;;18.80;18.20;;;19.90;64.00;;;;;;5034070;28;20827;-67
2024/04/02 11:47:13;;;;;;;19.13;18.53;;;19.90;63.90;;;;;;5034146;28;20442;-67
2024/04/02 11:49:40;;;;;;;19.00;18.40;;;19.90;64.00;;;;;;5033594;28;20441;-67
2024/04/02 11:52:06;;;;;;;18.90;18.30;;;19.90;63.90;;;;;;5033774;28;20492;-67
2024/04/02 11:54:33;;;;;;;18.50;17.90;;;19.90;63.80;;;;;;5032719;28;20453;-67
2024/04/02 12:00:10;;;;;;;18.90;18.30;;;19.90;63.90;;;;;;5033673;28;20480;-67
2024/04/02 12:02:38;;;;;;;19.77;19.17;;;19.90;63.90;;;;;;5033731;28;20461;-67
2024/04/02 12:05:06;;;;;;;18.77;18.07;;;19.90;63.70;;;;;;5033437;28;20445;-67
2024/04/02 12:07:33;;;;;;;18.67;18.07;;;19.90;63.70;;;;;;5033274;28;20491;-67
2024/04/02 12:10:00;;;;;;;19.20;18.50;;;19.90;63.70;;;;;;5032954;28;20952;-67
2024/04/02 12:12:28;;;;;;;20.00;19.10;;;19.90;63.70;;;;;;5033582;28;20468;-67
2024/04/02 12:14:55;;;;;;;19.43;18.83;;;19.90;63.70;;;;;;5033258;28;20437;-67
2024/04/02 12:17:22;;;;;;;19.77;18.93;;;19.90;63.70;;;;;;5033305;28;20448;-67
2024/04/02 12:19:48;;;;;;;18.93;18.33;;;19.90;63.60;;;;;;5032913;28;20487;-67
2024/04/02 12:22:15;;;;;;;18.43;17.93;;;19.90;63.70;;;;;;5033280;28;20457;-67
2024/04/02 12:24:41;;;;;;;19.30;18.67;;;19.90;63.60;;;;;;5033140;28;20445;-67
2024/04/02 12:27:08;;;;;;;18.80;18.20;;;19.90;63.50;;;;;;5032996;28;20448;-67
2024/04/02 12:29:36;;;;;;;18.83;18.23;;;19.90;63.50;;;;;;5032826;28;20292;-67
2024/04/02 12:32:05;;;;;;;19.37;18.67;;;19.90;63.50;;;;;;5033131;28;20476;-68